sensor_id;sensor_type;location;lat;lon;timestamp;pressure;altitude;pressure_sealevel;temperature;humidity
13705;BME280;6924;52.122;9.952;2023-04-04T00:00:21;102021.31;;;-1.43;83.59
13705;BME280;6924;52.122;9.952;2023-04-04T00:02:47;102022.34;;;-1.44;83.78
13705;BME280;6924;52.122;9.952;2023-04-04T00:05:15;102024.41;;;-1.53;83.71
13705;BME280;6924;52.122;9.952;2023-04-04T00:07:44;102035.44;;;-1.59;83.94
13705;BME280;6924;52.122;9.952;2023-04-04T00:10:11;102034.34;;;-1.65;84.08
13705;BME280;6924;52.122;9.952;2023-04-04T00:12:37;102029.78;;;-1.73;84.26
13705;BME280;6924;52.122;9.952;2023-04-04T00:15:05;102035.31;;;-1.73;84.60
13705;BME280;6924;52.122;9.952;2023-04-04T00:17:31;102033.88;;;-1.69;84.54
13705;BME280;6924;52.122;9.952;2023-04-04T00:19:58;102031.28;;;-1.70;84.51
13705;BME280;6924;52.122;9.952;2023-04-04T00:22:24;102030.63;;;-1.72;84.43
13705;BME280;6924;52.122;9.952;2023-04-04T00:24:52;102028.19;;;-1.82;84.80
13705;BME280;6924;52.122;9.952;2023-04-04T00:27:18;102027.94;;;-1.87;84.88
13705;BME280;6924;52.122;9.952;2023-04-04T00:29:45;102030.41;;;-1.92;85.16
13705;BME280;6924;52.122;9.952;2023-04-04T00:32:11;102031.06;;;-1.90;85.39
13705;BME280;6924;52.122;9.952;2023-04-04T00:34:38;102029.38;;;-1.91;85.43
13705;BME280;6924;52.122;9.952;2023-04-04T00:37:04;102034.00;;;-1.98;85.58
13705;BME280;6924;52.122;9.952;2023-04-04T00:39:31;102027.78;;;-2.00;85.42
13705;BME280;6924;52.122;9.952;2023-04-04T00:41:59;102030.06;;;-2.04;85.45
13705;BME280;6924;52.122;9.952;2023-04-04T00:44:26;102027.88;;;-2.09;85.37
13705;BME280;6924;52.122;9.952;2023-04-04T00:46:52;102026.16;;;-2.10;85.58
13705;BME280;6924;52.122;9.952;2023-04-04T00:49:18;102024.94;;;-2.07;85.61
13705;BME280;6924;52.122;9.952;2023-04-04T00:51:45;102030.41;;;-2.14;85.94
13705;BME280;6924;52.122;9.952;2023-04-04T00:54:11;102027.81;;;-2.15;86.05
13705;BME280;6924;52.122;9.952;2023-04-04T00:56:38;102025.22;;;-2.17;86.27
13705;BME280;6924;52.122;9.952;2023-04-04T00:59:07;102028.31;;;-2.26;86.52
13705;BME280;6924;52.122;9.952;2023-04-04T01:01:34;102026.78;;;-2.29;86.87
13705;BME280;6924;52.122;9.952;2023-04-04T01:04:01;102026.13;;;-2.31;86.95
13705;BME280;6924;52.122;9.952;2023-04-04T01:06:28;102028.22;;;-2.33;87.04
13705;BME280;6924;52.122;9.952;2023-04-04T01:08:57;102022.03;;;-2.35;87.08
13705;BME280;6924;52.122;9.952;2023-04-04T01:11:25;102022.22;;;-2.37;87.17
13705;BME280;6924;52.122;9.952;2023-04-04T01:13:51;102022.13;;;-2.43;87.28
13705;BME280;6924;52.122;9.952;2023-04-04T01:16:19;102017.44;;;-2.43;87.28
13705;BME280;6924;52.122;9.952;2023-04-04T01:18:45;102022.22;;;-2.52;87.53
13705;BME280;6924;52.122;9.952;2023-04-04T01:21:13;102015.81;;;-2.52;87.66
13705;BME280;6924;52.122;9.952;2023-04-04T01:23:48;102011.34;;;-2.53;87.85
13705;BME280;6924;52.122;9.952;2023-04-04T01:26:19;102015.81;;;-2.52;87.42
13705;BME280;6924;52.122;9.952;2023-04-04T01:28:46;102013.22;;;-2.54;87.66
13705;BME280;6924;52.122;9.952;2023-04-04T01:31:13;102016.00;;;-2.54;87.67
13705;BME280;6924;52.122;9.952;2023-04-04T01:33:45;102022.44;;;-2.53;87.55
13705;BME280;6924;52.122;9.952;2023-04-04T01:36:22;102020.69;;;-2.54;87.82
13705;BME280;6924;52.122;9.952;2023-04-04T01:38:53;102013.81;;;-2.58;87.74
13705;BME280;6924;52.122;9.952;2023-04-04T01:41:26;102012.78;;;-2.57;87.74
13705;BME280;6924;52.122;9.952;2023-04-04T01:43:55;102015.81;;;-2.67;87.67
13705;BME280;6924;52.122;9.952;2023-04-04T01:46:22;102011.44;;;-2.76;88.25
13705;BME280;6924;52.122;9.952;2023-04-04T01:48:48;102008.00;;;-2.78;88.34
13705;BME280;6924;52.122;9.952;2023-04-04T01:51:15;102010.50;;;-2.83;88.57
13705;BME280;6924;52.122;9.952;2023-04-04T01:53:42;102001.34;;;-2.84;88.99
13705;BME280;6924;52.122;9.952;2023-04-04T01:56:08;102009.66;;;-2.84;88.94
13705;BME280;6924;52.122;9.952;2023-04-04T01:58:36;102004.09;;;-2.84;88.71
13705;BME280;6924;52.122;9.952;2023-04-04T02:01:02;101992.19;;;-2.84;88.81
13705;BME280;6924;52.122;9.952;2023-04-04T02:03:29;101995.59;;;-2.82;88.51
13705;BME280;6924;52.122;9.952;2023-04-04T02:05:55;102001.13;;;-2.82;88.30
13705;BME280;6924;52.122;9.952;2023-04-04T02:08:22;102000.09;;;-2.81;87.83
13705;BME280;6924;52.122;9.952;2023-04-04T02:10:48;101993.88;;;-2.83;88.24
13705;BME280;6924;52.122;9.952;2023-04-04T02:13:15;101993.03;;;-2.84;88.16
13705;BME280;6924;52.122;9.952;2023-04-04T02:15:43;101988.34;;;-2.83;88.93
13705;BME280;6924;52.122;9.952;2023-04-04T02:18:10;101993.22;;;-2.85;89.20
13705;BME280;6924;52.122;9.952;2023-04-04T02:20:36;101997.22;;;-2.88;89.50
13705;BME280;6924;52.122;9.952;2023-04-04T02:23:03;101984.41;;;-2.89;89.11
13705;BME280;6924;52.122;9.952;2023-04-04T02:25:29;101985.28;;;-2.88;89.29
13705;BME280;6924;52.122;9.952;2023-04-04T02:27:55;101979.75;;;-2.88;88.79
13705;BME280;6924;52.122;9.952;2023-04-04T02:30:22;101979.94;;;-2.90;88.87
13705;BME280;6924;52.122;9.952;2023-04-04T02:32:49;101982.72;;;-2.90;88.51
13705;BME280;6924;52.122;9.952;2023-04-04T02:35:17;101974.97;;;-2.95;88.73
13705;BME280;6924;52.122;9.952;2023-04-04T02:37:44;101981.28;;;-3.01;88.73
13705;BME280;6924;52.122;9.952;2023-04-04T02:40:12;101975.06;;;-3.03;89.25
13705;BME280;6924;52.122;9.952;2023-04-04T02:42:41;101972.47;;;-3.04;89.01
13705;BME280;6924;52.122;9.952;2023-04-04T02:45:08;101969.16;;;-3.15;89.42
13705;BME280;6924;52.122;9.952;2023-04-04T02:47:35;101981.25;;;-3.16;89.87
13705;BME280;6924;52.122;9.952;2023-04-04T02:50:03;101966.97;;;-3.19;90.41
13705;BME280;6924;52.122;9.952;2023-04-04T02:52:30;101962.84;;;-3.23;90.41
13705;BME280;6924;52.122;9.952;2023-04-04T02:54:57;101967.31;;;-3.22;90.18
13705;BME280;6924;52.122;9.952;2023-04-04T02:57:23;101967.63;;;-3.17;90.49
13705;BME280;6924;52.122;9.952;2023-04-04T02:59:49;101956.91;;;-3.20;90.06
13705;BME280;6924;52.122;9.952;2023-04-04T03:02:16;101962.47;;;-3.20;90.30
13705;BME280;6924;52.122;9.952;2023-04-04T03:04:42;101954.38;;;-3.22;90.27
13705;BME280;6924;52.122;9.952;2023-04-04T03:07:11;101949.28;;;-3.18;90.46
13705;BME280;6924;52.122;9.952;2023-04-04T03:09:38;101949.28;;;-3.18;90.15
13705;BME280;6924;52.122;9.952;2023-04-04T03:12:04;101949.47;;;-3.20;90.21
13705;BME280;6924;52.122;9.952;2023-04-04T03:14:31;101943.47;;;-3.23;90.54
13705;BME280;6924;52.122;9.952;2023-04-04T03:16:58;101944.72;;;-3.26;90.75
13705;BME280;6924;52.122;9.952;2023-04-04T03:19:24;101937.34;;;-3.34;90.67
13705;BME280;6924;52.122;9.952;2023-04-04T03:21:50;101937.44;;;-3.27;90.33
13705;BME280;6924;52.122;9.952;2023-04-04T03:24:18;101937.25;;;-3.25;90.35
13705;BME280;6924;52.122;9.952;2023-04-04T03:26:45;101935.06;;;-3.30;90.11
13705;BME280;6924;52.122;9.952;2023-04-04T03:29:11;101932.47;;;-3.32;90.98
13705;BME280;6924;52.122;9.952;2023-04-04T03:31:38;101929.44;;;-3.37;90.93
13705;BME280;6924;52.122;9.952;2023-04-04T03:34:05;101939.25;;;-3.34;90.67
13705;BME280;6924;52.122;9.952;2023-04-04T03:36:32;101946.22;;;-3.38;91.12
13705;BME280;6924;52.122;9.952;2023-04-04T03:38:58;101932.56;;;-3.40;90.81
13705;BME280;6924;52.122;9.952;2023-04-04T03:41:26;101944.31;;;-3.38;90.87
13705;BME280;6924;52.122;9.952;2023-04-04T03:43:53;101935.81;;;-3.36;90.59
13705;BME280;6924;52.122;9.952;2023-04-04T03:46:19;101932.66;;;-3.33;90.94
13705;BME280;6924;52.122;9.952;2023-04-04T03:48:45;101931.72;;;-3.25;90.94
13705;BME280;6924;52.122;9.952;2023-04-04T03:51:12;101932.00;;;-3.35;91.50
13705;BME280;6924;52.122;9.952;2023-04-04T03:53:38;101929.53;;;-3.45;91.15
13705;BME280;6924;52.122;9.952;2023-04-04T03:56:05;101928.28;;;-3.42;91.52
13705;BME280;6924;52.122;9.952;2023-04-04T03:58:34;101921.72;;;-3.41;91.75
13705;BME280;6924;52.122;9.952;2023-04-04T04:01:00;101919.88;;;-3.49;92.02
13705;BME280;6924;52.122;9.952;2023-04-04T04:03:27;101924.72;;;-3.51;92.23
13705;BME280;6924;52.122;9.952;2023-04-04T04:05:53;101918.06;;;-3.57;92.51
13705;BME280;6924;52.122;9.952;2023-04-04T04:08:19;101917.28;;;-3.65;92.79
13705;BME280;6924;52.122;9.952;2023-04-04T04:10:46;101912.88;;;-3.60;93.43
13705;BME280;6924;52.122;9.952;2023-04-04T04:13:12;101918.63;;;-3.61;93.07
13705;BME280;6924;52.122;9.952;2023-04-04T04:15:40;101915.31;;;-3.57;92.98
13705;BME280;6924;52.122;9.952;2023-04-04T04:18:06;101916.72;;;-3.61;93.14
13705;BME280;6924;52.122;9.952;2023-04-04T04:20:33;101913.09;;;-3.61;92.92
13705;BME280;6924;52.122;9.952;2023-04-04T04:22:59;101916.03;;;-3.63;92.78
13705;BME280;6924;52.122;9.952;2023-04-04T04:25:26;101915.88;;;-3.61;93.05
13705;BME280;6924;52.122;9.952;2023-04-04T04:27:54;101917.50;;;-3.52;93.00
13705;BME280;6924;52.122;9.952;2023-04-04T04:30:20;101917.22;;;-3.57;92.70
13705;BME280;6924;52.122;9.952;2023-04-04T04:32:49;101912.31;;;-3.70;92.84
13705;BME280;6924;52.122;9.952;2023-04-04T04:35:15;101914.03;;;-3.69;92.87
13705;BME280;6924;52.122;9.952;2023-04-04T04:37:42;101912.88;;;-3.75;92.79
13705;BME280;6924;52.122;9.952;2023-04-04T04:40:09;101911.53;;;-3.79;93.24
13705;BME280;6924;52.122;9.952;2023-04-04T04:42:35;101916.38;;;-3.81;93.33
13705;BME280;6924;52.122;9.952;2023-04-04T04:45:02;101913.06;;;-3.76;93.46
13705;BME280;6924;52.122;9.952;2023-04-04T04:47:29;101920.00;;;-3.80;93.62
13705;BME280;6924;52.122;9.952;2023-04-04T04:49:57;101921.75;;;-3.79;93.42
13705;BME280;6924;52.122;9.952;2023-04-04T04:52:23;101920.97;;;-3.73;93.37
13705;BME280;6924;52.122;9.952;2023-04-04T04:54:49;101927.75;;;-3.76;93.47
13705;BME280;6924;52.122;9.952;2023-04-04T04:57:16;101918.66;;;-3.84;93.37
13705;BME280;6924;52.122;9.952;2023-04-04T04:59:42;101921.84;;;-3.72;93.74
13705;BME280;6924;52.122;9.952;2023-04-04T05:02:09;101916.44;;;-3.66;93.61
13705;BME280;6924;52.122;9.952;2023-04-04T05:04:35;101920.50;;;-3.62;93.48
13705;BME280;6924;52.122;9.952;2023-04-04T05:07:03;101922.72;;;-3.72;93.03
13705;BME280;6924;52.122;9.952;2023-04-04T05:09:31;101926.44;;;-3.65;93.43
13705;BME280;6924;52.122;9.952;2023-04-04T05:11:58;101926.63;;;-3.66;93.33
13705;BME280;6924;52.122;9.952;2023-04-04T05:14:24;101930.44;;;-3.67;94.02
13705;BME280;6924;52.122;9.952;2023-04-04T05:16:51;101937.38;;;-3.71;94.49
13705;BME280;6924;52.122;9.952;2023-04-04T05:19:18;101941.97;;;-3.64;94.75
13705;BME280;6924;52.122;9.952;2023-04-04T05:21:44;101935.00;;;-3.60;94.88
13705;BME280;6924;52.122;9.952;2023-04-04T05:24:13;101937.22;;;-3.55;94.98
13705;BME280;6924;52.122;9.952;2023-04-04T05:26:41;101946.13;;;-3.45;94.81
13705;BME280;6924;52.122;9.952;2023-04-04T05:29:08;101939.44;;;-3.36;94.79
13705;BME280;6924;52.122;9.952;2023-04-04T05:31:34;101942.69;;;-3.32;94.47
13705;BME280;6924;52.122;9.952;2023-04-04T05:34:00;101956.25;;;-3.22;94.10
13705;BME280;6924;52.122;9.952;2023-04-04T05:36:32;101949.28;;;-3.18;94.13
13705;BME280;6924;52.122;9.952;2023-04-04T05:38:58;101944.25;;;-3.15;94.26
13705;BME280;6924;52.122;9.952;2023-04-04T05:41:26;101943.28;;;-3.07;94.38
13705;BME280;6924;52.122;9.952;2023-04-04T05:43:53;101947.19;;;-3.01;94.59
13705;BME280;6924;52.122;9.952;2023-04-04T05:46:19;101947.75;;;-2.91;95.01
13705;BME280;6924;52.122;9.952;2023-04-04T05:48:45;101957.03;;;-2.84;95.20
13705;BME280;6924;52.122;9.952;2023-04-04T05:51:12;101953.09;;;-2.75;95.40
13705;BME280;6924;52.122;9.952;2023-04-04T05:53:38;101954.34;;;-2.62;95.55
13705;BME280;6924;52.122;9.952;2023-04-04T05:56:05;101959.75;;;-2.54;95.74
13705;BME280;6924;52.122;9.952;2023-04-04T05:58:32;101962.59;;;-2.47;95.79
13705;BME280;6924;52.122;9.952;2023-04-04T06:00:59;101961.91;;;-2.35;95.65
13705;BME280;6924;52.122;9.952;2023-04-04T06:03:25;101961.56;;;-2.25;95.27
13705;BME280;6924;52.122;9.952;2023-04-04T06:05:53;101961.66;;;-2.18;95.50
13705;BME280;6924;52.122;9.952;2023-04-04T06:08:19;101965.16;;;-2.10;95.19
13705;BME280;6924;52.122;9.952;2023-04-04T06:10:45;101957.13;;;-2.04;95.12
13705;BME280;6924;52.122;9.952;2023-04-04T06:13:12;101965.50;;;-1.98;95.16
13705;BME280;6924;52.122;9.952;2023-04-04T06:15:39;101961.13;;;-1.85;95.07
13705;BME280;6924;52.122;9.952;2023-04-04T06:18:06;101962.28;;;-1.80;94.96
13705;BME280;6924;52.122;9.952;2023-04-04T06:20:32;101968.53;;;-1.71;94.59
13705;BME280;6924;52.122;9.952;2023-04-04T06:22:59;101971.63;;;-1.59;94.07
13705;BME280;6924;52.122;9.952;2023-04-04T06:25:28;101962.50;;;-1.53;93.92
13705;BME280;6924;52.122;9.952;2023-04-04T06:27:55;101971.59;;;-1.38;93.96
13705;BME280;6924;52.122;9.952;2023-04-04T06:30:21;101964.00;;;-1.29;93.84
13705;BME280;6924;52.122;9.952;2023-04-04T06:32:49;101965.16;;;-1.17;93.76
13705;BME280;6924;52.122;9.952;2023-04-04T06:35:16;101962.47;;;-1.03;93.29
13705;BME280;6924;52.122;9.952;2023-04-04T06:37:42;101958.88;;;-0.91;92.56
13705;BME280;6924;52.122;9.952;2023-04-04T06:40:09;101964.75;;;-0.79;91.75
13705;BME280;6924;52.122;9.952;2023-04-04T06:42:36;101976.97;;;-0.67;90.98
13705;BME280;6924;52.122;9.952;2023-04-04T06:45:02;101967.41;;;-0.57;89.67
13705;BME280;6924;52.122;9.952;2023-04-04T06:47:29;101963.78;;;-0.51;89.29
13705;BME280;6924;52.122;9.952;2023-04-04T06:49:56;101974.94;;;-0.45;89.15
13705;BME280;6924;52.122;9.952;2023-04-04T06:52:24;101969.88;;;-0.34;89.36
13705;BME280;6924;52.122;9.952;2023-04-04T06:54:50;101967.97;;;-0.21;88.95
13705;BME280;6924;52.122;9.952;2023-04-04T06:57:17;101961.41;;;-0.06;88.64
13705;BME280;6924;52.122;9.952;2023-04-04T06:59:43;101962.09;;;0.09;87.04
13705;BME280;6924;52.122;9.952;2023-04-04T07:02:10;101972.16;;;0.24;87.11
13705;BME280;6924;52.122;9.952;2023-04-04T07:04:36;101971.75;;;0.33;86.56
13705;BME280;6924;52.122;9.952;2023-04-04T07:07:05;101978.56;;;0.37;87.14
13705;BME280;6924;52.122;9.952;2023-04-04T07:09:31;101979.03;;;0.54;86.28
13705;BME280;6924;52.122;9.952;2023-04-04T07:11:58;101988.03;;;0.63;85.29
13705;BME280;6924;52.122;9.952;2023-04-04T07:14:25;101978.63;;;0.77;85.38
13705;BME280;6924;52.122;9.952;2023-04-04T07:16:51;101976.03;;;0.63;83.13
13705;BME280;6924;52.122;9.952;2023-04-04T07:19:19;101974.31;;;0.68;83.06
13705;BME280;6924;52.122;9.952;2023-04-04T07:21:48;101976.47;;;0.79;83.72
13705;BME280;6924;52.122;9.952;2023-04-04T07:24:15;101969.38;;;0.57;80.54
13705;BME280;6924;52.122;9.952;2023-04-04T07:26:42;101970.03;;;0.72;80.75
13705;BME280;6924;52.122;9.952;2023-04-04T07:29:08;101975.59;;;0.72;80.28
13705;BME280;6924;52.122;9.952;2023-04-04T07:31:35;101967.03;;;0.67;78.74
13705;BME280;6924;52.122;9.952;2023-04-04T07:34:02;101970.47;;;0.82;78.99
13705;BME280;6924;52.122;9.952;2023-04-04T07:36:28;101966.16;;;1.00;79.91
13705;BME280;6924;52.122;9.952;2023-04-04T07:38:55;101976.44;;;1.06;78.09
13705;BME280;6924;52.122;9.952;2023-04-04T07:41:23;101971.88;;;1.18;79.36
13705;BME280;6924;52.122;9.952;2023-04-04T07:43:50;101960.78;;;1.05;78.68
13705;BME280;6924;52.122;9.952;2023-04-04T07:46:17;101966.75;;;1.15;77.05
13705;BME280;6924;52.122;9.952;2023-04-04T07:48:44;101966.91;;;1.34;76.18
13705;BME280;6924;52.122;9.952;2023-04-04T07:51:10;101964.66;;;1.62;75.17
13705;BME280;6924;52.122;9.952;2023-04-04T07:53:37;101965.63;;;1.36;72.50
13705;BME280;6924;52.122;9.952;2023-04-04T07:56:04;101965.78;;;1.55;74.61
13705;BME280;6924;52.122;9.952;2023-04-04T07:58:32;101965.66;;;1.81;73.80
13705;BME280;6924;52.122;9.952;2023-04-04T08:01:00;101962.75;;;2.01;73.08
13705;BME280;6924;52.122;9.952;2023-04-04T08:03:26;101955.53;;;1.87;70.69
13705;BME280;6924;52.122;9.952;2023-04-04T08:05:53;101953.56;;;2.26;72.51
13705;BME280;6924;52.122;9.952;2023-04-04T08:08:19;101960.63;;;2.60;72.75
13705;BME280;6924;52.122;9.952;2023-04-04T08:10:46;101960.63;;;2.60;69.18
13705;BME280;6924;52.122;9.952;2023-04-04T08:13:13;101956.00;;;2.73;70.24
13705;BME280;6924;52.122;9.952;2023-04-04T08:15:41;101954.00;;;2.80;68.22
13705;BME280;6924;52.122;9.952;2023-04-04T08:18:07;101945.91;;;2.72;67.52
13705;BME280;6924;52.122;9.952;2023-04-04T08:20:33;101943.56;;;3.12;69.23
13705;BME280;6924;52.122;9.952;2023-04-04T08:23:00;101944.50;;;3.43;69.34
13705;BME280;6924;52.122;9.952;2023-04-04T08:25:27;101947.41;;;3.36;65.83
13705;BME280;6924;52.122;9.952;2023-04-04T08:27:54;101947.47;;;3.29;61.15
13705;BME280;6924;52.122;9.952;2023-04-04T08:30:21;101944.75;;;3.60;64.65
13705;BME280;6924;52.122;9.952;2023-04-04T08:32:49;101957.81;;;3.47;58.74
13705;BME280;6924;52.122;9.952;2023-04-04T08:35:15;101951.56;;;3.08;62.32
13705;BME280;6924;52.122;9.952;2023-04-04T08:37:44;101948.47;;;3.54;63.52
13705;BME280;6924;52.122;9.952;2023-04-04T08:40:11;101946.59;;;3.66;58.46
13705;BME280;6924;52.122;9.952;2023-04-04T08:42:39;101950.09;;;3.43;57.75
13705;BME280;6924;52.122;9.952;2023-04-04T08:45:08;101943.81;;;3.29;57.39
13705;BME280;6924;52.122;9.952;2023-04-04T08:47:37;101938.91;;;3.43;57.54
13705;BME280;6924;52.122;9.952;2023-04-04T08:50:06;101935.34;;;3.36;56.38
13705;BME280;6924;52.122;9.952;2023-04-04T08:52:34;101938.13;;;3.17;57.58
13705;BME280;6924;52.122;9.952;2023-04-04T08:55:01;101935.03;;;3.07;56.69
13705;BME280;6924;52.122;9.952;2023-04-04T08:57:29;101939.38;;;3.03;56.03
13705;BME280;6924;52.122;9.952;2023-04-04T08:59:56;101935.72;;;3.02;54.55
13705;BME280;6924;52.122;9.952;2023-04-04T09:02:25;101929.38;;;2.70;52.45
13705;BME280;6924;52.122;9.952;2023-04-04T09:04:53;101928.19;;;2.59;53.02
13705;BME280;6924;52.122;9.952;2023-04-04T09:07:23;101934.91;;;2.52;54.01
13705;BME280;6924;52.122;9.952;2023-04-04T09:09:53;101931.06;;;2.71;56.94
13705;BME280;6924;52.122;9.952;2023-04-04T09:12:20;101934.75;;;2.72;56.95
13705;BME280;6924;52.122;9.952;2023-04-04T09:14:49;101930.66;;;2.93;57.70
13705;BME280;6924;52.122;9.952;2023-04-04T09:17:16;101928.75;;;3.12;54.34
13705;BME280;6924;52.122;9.952;2023-04-04T09:19:43;101926.50;;;3.39;54.59
13705;BME280;6924;52.122;9.952;2023-04-04T09:22:09;101918.31;;;3.56;53.75
13705;BME280;6924;52.122;9.952;2023-04-04T09:24:39;101924.94;;;3.91;54.29
13705;BME280;6924;52.122;9.952;2023-04-04T09:27:06;101920.16;;;4.10;54.28
13705;BME280;6924;52.122;9.952;2023-04-04T09:29:34;101916.00;;;4.13;55.05
13705;BME280;6924;52.122;9.952;2023-04-04T09:32:01;101908.63;;;4.30;54.26
13705;BME280;6924;52.122;9.952;2023-04-04T09:34:28;101915.13;;;4.54;53.77
13705;BME280;6924;52.122;9.952;2023-04-04T09:36:56;101917.56;;;4.63;51.80
13705;BME280;6924;52.122;9.952;2023-04-04T09:39:22;101912.94;;;5.04;52.37
13705;BME280;6924;52.122;9.952;2023-04-04T09:41:50;101910.97;;;5.28;50.85
13705;BME280;6924;52.122;9.952;2023-04-04T09:44:17;101919.00;;;5.36;49.47
13705;BME280;6924;52.122;9.952;2023-04-04T09:46:43;101914.44;;;5.58;48.89
13705;BME280;6924;52.122;9.952;2023-04-04T09:49:18;101918.63;;;5.85;50.07
13705;BME280;6924;52.122;9.952;2023-04-04T09:51:47;101912.13;;;6.13;48.59
13705;BME280;6924;52.122;9.952;2023-04-04T09:54:19;101916.19;;;5.76;45.99
13705;BME280;6924;52.122;9.952;2023-04-04T09:56:46;101918.78;;;5.66;46.62
13705;BME280;6924;52.122;9.952;2023-04-04T09:59:14;101920.97;;;5.76;49.21
13705;BME280;6924;52.122;9.952;2023-04-04T10:01:41;101916.50;;;5.92;48.92
13705;BME280;6924;52.122;9.952;2023-04-04T10:04:09;101918.75;;;5.78;48.02
13705;BME280;6924;52.122;9.952;2023-04-04T10:06:36;101921.81;;;5.24;47.59
13705;BME280;6924;52.122;9.952;2023-04-04T10:09:03;101922.06;;;5.11;48.91
13705;BME280;6924;52.122;9.952;2023-04-04T10:11:30;101918.16;;;5.24;50.12
13705;BME280;6924;52.122;9.952;2023-04-04T10:13:58;101919.34;;;5.51;49.91
13705;BME280;6924;52.122;9.952;2023-04-04T10:16:30;101924.06;;;5.63;49.11
13705;BME280;6924;52.122;9.952;2023-04-04T10:18:57;101914.84;;;5.38;48.92
13705;BME280;6924;52.122;9.952;2023-04-04T10:21:26;101916.09;;;4.95;47.90
13705;BME280;6924;52.122;9.952;2023-04-04T10:23:53;101913.44;;;5.01;49.16
13705;BME280;6924;52.122;9.952;2023-04-04T10:26:19;101918.28;;;4.58;48.92
13705;BME280;6924;52.122;9.952;2023-04-04T10:28:47;101906.75;;;4.90;49.65
13705;BME280;6924;52.122;9.952;2023-04-04T10:31:16;101915.25;;;4.95;48.88
13705;BME280;6924;52.122;9.952;2023-04-04T10:33:49;101907.94;;;4.70;49.81
13705;BME280;6924;52.122;9.952;2023-04-04T10:36:20;101910.63;;;5.01;50.48
13705;BME280;6924;52.122;9.952;2023-04-04T10:38:53;101910.38;;;5.14;49.26
13705;BME280;6924;52.122;9.952;2023-04-04T10:41:24;101905.47;;;5.73;48.37
13705;BME280;6924;52.122;9.952;2023-04-04T10:43:55;101902.63;;;5.85;45.88
13705;BME280;6924;52.122;9.952;2023-04-04T10:46:27;101898.00;;;6.08;44.66
13705;BME280;6924;52.122;9.952;2023-04-04T10:48:58;101885.84;;;6.19;45.13
13705;BME280;6924;52.122;9.952;2023-04-04T10:51:25;101884.03;;;5.96;47.01
13705;BME280;6924;52.122;9.952;2023-04-04T10:53:53;101887.72;;;5.56;45.12
13705;BME280;6924;52.122;9.952;2023-04-04T10:56:20;101884.78;;;5.79;47.60
13705;BME280;6924;52.122;9.952;2023-04-04T10:58:48;101882.38;;;5.43;45.15
13705;BME280;6924;52.122;9.952;2023-04-04T11:01:14;101873.53;;;5.91;45.54
13705;BME280;6924;52.122;9.952;2023-04-04T11:07:08;101862.56;;;7.30;46.15
13705;BME280;6924;52.122;9.952;2023-04-04T11:09:48;101853.91;;;7.59;45.98
13705;BME280;6924;52.122;9.952;2023-04-04T11:12:15;101849.44;;;7.85;45.35
13705;BME280;6924;52.122;9.952;2023-04-04T11:14:56;101848.56;;;7.84;45.36
13705;BME280;6924;52.122;9.952;2023-04-04T11:17:52;101850.31;;;7.91;44.63
13705;BME280;6924;52.122;9.952;2023-04-04T11:20:21;101844.59;;;7.58;42.45
13705;BME280;6924;52.122;9.952;2023-04-04T11:22:50;101840.00;;;8.01;43.92
13705;BME280;6924;52.122;9.952;2023-04-04T11:25:28;101835.22;;;8.02;42.87
13705;BME280;6924;52.122;9.952;2023-04-04T11:27:56;101838.16;;;7.85;43.96
13705;BME280;6924;52.122;9.952;2023-04-04T11:30:23;101828.72;;;8.01;46.00
13705;BME280;6924;52.122;9.952;2023-04-04T11:32:51;101824.94;;;8.18;41.82
13705;BME280;6924;52.122;9.952;2023-04-04T11:35:17;101831.06;;;7.55;45.60
13705;BME280;6924;52.122;9.952;2023-04-04T11:37:58;101822.69;;;8.20;44.61
13705;BME280;6924;52.122;9.952;2023-04-04T11:40:36;101818.31;;;8.02;41.54
13705;BME280;6924;52.122;9.952;2023-04-04T11:43:08;101805.31;;;8.33;44.51
13705;BME280;6924;52.122;9.952;2023-04-04T11:45:35;101805.13;;;8.07;42.00
13705;BME280;6924;52.122;9.952;2023-04-04T11:48:03;101805.66;;;7.50;41.98
13705;BME280;6924;52.122;9.952;2023-04-04T11:50:34;101810.47;;;7.50;45.31
13705;BME280;6924;52.122;9.952;2023-04-04T11:53:05;101796.16;;;7.83;47.78
13705;BME280;6924;52.122;9.952;2023-04-04T11:55:32;101797.00;;;8.43;43.56
13705;BME280;6924;52.122;9.952;2023-04-04T11:58:09;101796.59;;;8.67;43.11
13705;BME280;6924;52.122;9.952;2023-04-04T12:00:37;101799.09;;;8.63;42.71
13705;BME280;6924;52.122;9.952;2023-04-04T12:03:05;101790.56;;;8.53;41.78
13705;BME280;6924;52.122;9.952;2023-04-04T12:05:33;101790.34;;;8.27;42.03
13705;BME280;6924;52.122;9.952;2023-04-04T12:08:00;101786.81;;;7.78;42.32
13705;BME280;6924;52.122;9.952;2023-04-04T12:10:30;101782.41;;;7.60;42.68
13705;BME280;6924;52.122;9.952;2023-04-04T12:12:57;101778.78;;;7.64;41.53
13705;BME280;6924;52.122;9.952;2023-04-04T12:15:26;101784.16;;;7.66;42.37
13705;BME280;6924;52.122;9.952;2023-04-04T12:17:53;101779.31;;;7.34;42.23
13705;BME280;6924;52.122;9.952;2023-04-04T12:20:21;101776.75;;;7.60;42.22
13705;BME280;6924;52.122;9.952;2023-04-04T12:22:48;101778.03;;;8.06;43.54
13705;BME280;6924;52.122;9.952;2023-04-04T12:25:15;101776.13;;;8.12;40.33
13705;BME280;6924;52.122;9.952;2023-04-04T12:27:44;101757.78;;;8.42;41.43
13705;BME280;6924;52.122;9.952;2023-04-04T12:30:12;101762.31;;;8.11;40.16
13705;BME280;6924;52.122;9.952;2023-04-04T12:32:41;101770.13;;;7.71;39.86
13705;BME280;6924;52.122;9.952;2023-04-04T12:35:09;101763.91;;;7.69;41.65
13705;BME280;6924;52.122;9.952;2023-04-04T12:37:35;101770.88;;;7.34;44.42
13705;BME280;6924;52.122;9.952;2023-04-04T12:40:03;101760.84;;;7.43;43.27
13705;BME280;6924;52.122;9.952;2023-04-04T12:42:33;101768.78;;;7.02;42.63
13705;BME280;6924;52.122;9.952;2023-04-04T12:45:01;101758.81;;;6.51;43.75
13705;BME280;6924;52.122;9.952;2023-04-04T12:47:29;101757.75;;;6.18;43.36
13705;BME280;6924;52.122;9.952;2023-04-04T12:49:56;101753.72;;;6.31;43.06
13705;BME280;6924;52.122;9.952;2023-04-04T12:52:26;101746.56;;;6.23;43.56
13705;BME280;6924;52.122;9.952;2023-04-04T12:54:53;101751.94;;;6.63;42.54
13705;BME280;6924;52.122;9.952;2023-04-04T12:57:23;101749.03;;;6.97;43.30
13705;BME280;6924;52.122;9.952;2023-04-04T12:59:53;101740.25;;;7.16;42.29
13705;BME280;6924;52.122;9.952;2023-04-04T13:02:22;101732.22;;;7.30;43.41
13705;BME280;6924;52.122;9.952;2023-04-04T13:04:51;101730.09;;;7.37;45.47
13705;BME280;6924;52.122;9.952;2023-04-04T13:07:20;101731.72;;;7.60;41.53
13705;BME280;6924;52.122;9.952;2023-04-04T13:09:51;101722.91;;;7.51;41.60